Terminal Aerodrome Forecast
Issued by NWS Charleston, WV

Current Version | Previous Version | Graphics & Text | Print | Product List | Glossary On
Versions: 1 2 3 4 5 6 7 8 9 10 11 12 13 14 15 16 17 18 19 20 21
000
FTUS41 KRLX 270500
TAFHTS
TAF
KHTS 270533Z 2706/2806 VRB03KT 6SM BR OVC120
     FM271000 VRB03KT P6SM BKN060
     FM271200 32005KT P6SM BKN025
     FM271600 29008KT 6SM BR BKN030
     FM280500 29006KT P6SM SCT025=

USA.gov is the U.S. government's official web portal to all federal, state and local government web resources and services.